createdAt,value
2018-08-25T00:01:15.873Z,25.70
2018-08-25T00:03:56.520Z,25.70
2018-08-25T00:06:37.039Z,25.70
2018-08-25T00:09:17.724Z,25.70
2018-08-25T00:11:58.422Z,25.70
2018-08-25T00:14:39.076Z,25.70
2018-08-25T00:17:20.700Z,25.80
2018-08-25T00:20:01.311Z,25.70
2018-08-25T00:22:41.893Z,25.70
2018-08-25T00:25:22.482Z,25.60
2018-08-25T00:28:03.008Z,25.60
2018-08-25T00:30:48.691Z,25.60
2018-08-25T00:33:30.628Z,25.50
2018-08-25T00:36:11.495Z,25.50
2018-08-25T00:38:52.086Z,25.40
2018-08-25T00:41:33.559Z,25.40
2018-08-25T00:44:14.134Z,25.30
2018-08-25T00:46:54.707Z,25.30
2018-08-25T00:49:35.277Z,25.40
2018-08-25T00:52:15.874Z,25.40
2018-08-25T00:54:57.586Z,25.40
2018-08-25T00:57:39.403Z,25.40
2018-08-25T01:00:20.442Z,25.30
2018-08-25T01:03:01.087Z,25.20
2018-08-25T01:05:42.498Z,25.20
2018-08-25T01:08:23.096Z,25.10
2018-08-25T01:11:03.651Z,25.20
2018-08-25T01:13:44.995Z,25.10
2018-08-25T01:16:25.623Z,25.10
2018-08-25T01:19:07.080Z,25.10
2018-08-25T01:21:48.513Z,25.20
2018-08-25T01:24:29.297Z,25.20
2018-08-25T01:27:10.653Z,25.20
2018-08-25T01:29:51.215Z,25.20
2018-08-25T01:32:31.934Z,25.20
2018-08-25T01:35:12.582Z,25.20
2018-08-25T01:37:54.233Z,25.10
2018-08-25T01:40:35.760Z,25.10
2018-08-25T01:43:17.196Z,25.00
2018-08-25T01:45:57.763Z,25.00
2018-08-25T01:48:39.029Z,25.00
2018-08-25T01:51:20.444Z,25.00
2018-08-25T01:54:01.421Z,25.00
2018-08-25T01:56:42.869Z,25.00
2018-08-25T01:59:23.753Z,25.00
2018-08-25T02:02:05.180Z,25.00
2018-08-25T02:04:45.790Z,25.10
2018-08-25T02:07:26.384Z,25.10
2018-08-25T02:10:07.086Z,25.00
2018-08-25T02:12:48.565Z,25.00
2018-08-25T02:15:29.180Z,25.00
2018-08-25T02:18:09.779Z,24.90
2018-08-25T02:20:50.478Z,24.90
2018-08-25T02:23:31.026Z,24.90
2018-08-25T02:26:11.650Z,24.90
2018-08-25T02:28:52.666Z,24.90
2018-08-25T02:31:33.856Z,25.00
2018-08-25T02:34:14.478Z,25.00
2018-08-25T02:36:55.922Z,25.00
2018-08-25T02:39:37.403Z,25.00
2018-08-25T02:42:17.976Z,25.00
2018-08-25T02:44:58.644Z,25.00
2018-08-25T02:47:40.050Z,25.00
2018-08-25T02:50:20.780Z,25.00
2018-08-25T02:53:02.169Z,25.10
2018-08-25T02:55:43.705Z,25.00
2018-08-25T02:58:24.221Z,25.00
2018-08-25T03:01:05.709Z,25.00
2018-08-25T03:03:47.189Z,25.00
2018-08-25T03:06:28.485Z,25.00
2018-08-25T03:09:09.538Z,25.00
2018-08-25T03:11:50.517Z,25.00
2018-08-25T03:14:31.197Z,25.00
2018-08-25T03:17:11.777Z,25.00
2018-08-25T03:19:53.458Z,25.10
2018-08-25T03:22:34.945Z,25.00
2018-08-25T03:25:17.333Z,25.00
2018-08-25T03:27:57.977Z,25.00
2018-08-25T03:30:39.385Z,25.00
2018-08-25T03:33:20.005Z,24.90
2018-08-25T03:36:00.739Z,24.90
2018-08-25T03:38:41.230Z,24.80
2018-08-25T03:41:21.890Z,24.70
2018-08-25T03:44:02.507Z,24.70
2018-08-25T03:46:43.273Z,24.60
2018-08-25T03:49:24.697Z,24.50
2018-08-25T03:52:05.628Z,24.40
2018-08-25T03:54:46.946Z,24.40
2018-08-25T03:57:27.655Z,24.40
2018-08-25T04:00:09.279Z,24.40
2018-08-25T04:02:50.622Z,24.40
2018-08-25T04:05:31.796Z,24.40
2018-08-25T04:08:12.900Z,24.40
2018-08-25T04:10:53.894Z,24.40
2018-08-25T04:13:35.090Z,24.40
2018-08-25T04:16:15.658Z,24.40
2018-08-25T04:18:57.111Z,24.40
2018-08-25T04:21:38.947Z,24.40
2018-08-25T04:24:20.415Z,24.40
2018-08-25T04:27:01.963Z,24.40
2018-08-25T04:29:43.449Z,24.40
2018-08-25T04:32:24.066Z,24.40
2018-08-25T04:35:05.638Z,24.40
2018-08-25T04:37:46.199Z,24.40
2018-08-25T04:40:26.890Z,24.40
2018-08-25T04:43:08.460Z,24.40
2018-08-25T04:45:49.012Z,24.30
2018-08-25T04:48:29.654Z,24.30
2018-08-25T04:51:11.271Z,24.20
2018-08-25T04:53:53.069Z,24.20
2018-08-25T04:56:34.826Z,24.20
2018-08-25T04:59:15.752Z,24.20
2018-08-25T05:01:56.328Z,24.20
2018-08-25T05:04:37.874Z,24.20
2018-08-25T05:07:19.279Z,24.20
2018-08-25T05:10:00.752Z,24.20
2018-08-25T05:12:42.085Z,24.20
2018-08-25T05:15:22.765Z,24.20
2018-08-25T05:18:04.244Z,24.10
2018-08-25T05:20:45.724Z,24.10
2018-08-25T05:23:26.357Z,24.10
2018-08-25T05:26:08.277Z,24.20
2018-08-25T05:28:49.581Z,24.20
2018-08-25T05:31:30.106Z,24.20
2018-08-25T05:34:10.810Z,24.20
2018-08-25T05:36:51.493Z,24.10
2018-08-25T05:39:32.014Z,24.10
2018-08-25T05:42:12.770Z,24.00
2018-08-25T05:44:54.197Z,24.10
2018-08-25T05:47:35.787Z,24.10
2018-08-25T05:50:17.183Z,24.10
2018-08-25T05:52:58.461Z,24.20
2018-08-25T05:55:39.510Z,24.30
2018-08-25T05:58:21.058Z,24.40
2018-08-25T06:01:01.656Z,24.40
2018-08-25T06:03:42.230Z,24.50
2018-08-25T06:06:22.909Z,24.60
2018-08-25T06:09:05.410Z,24.70
2018-08-25T06:11:45.961Z,24.90
2018-08-25T06:14:26.650Z,24.90
2018-08-25T06:17:07.199Z,25.00
2018-08-25T06:19:48.678Z,25.10
2018-08-25T06:22:30.103Z,25.20
2018-08-25T06:25:10.813Z,25.30
2018-08-25T06:27:52.321Z,25.30
2018-08-25T06:30:32.953Z,25.30
2018-08-25T06:33:14.309Z,25.30
2018-08-25T06:35:54.958Z,25.40
2018-08-25T06:38:35.606Z,25.40
2018-08-25T06:41:16.258Z,25.50
2018-08-25T06:43:56.774Z,25.60
2018-08-25T06:46:37.373Z,25.70
2018-08-25T06:49:17.912Z,25.90
2018-08-25T06:51:59.973Z,26.00
2018-08-25T06:54:41.069Z,26.00
2018-08-25T06:57:21.654Z,26.00
2018-08-25T07:00:03.103Z,26.30
2018-08-25T07:02:43.665Z,26.60
2018-08-25T07:05:24.358Z,27.00
2018-08-25T07:08:04.905Z,27.20
2018-08-25T07:10:45.628Z,27.40
2018-08-25T07:13:27.040Z,27.60
2018-08-25T07:16:08.542Z,27.80
2018-08-25T07:18:49.708Z,27.80
2018-08-25T07:21:30.821Z,27.90
2018-08-25T07:24:12.031Z,28.00
2018-08-25T07:26:53.167Z,28.00
2018-08-25T07:29:34.622Z,27.90
2018-08-25T07:32:16.013Z,27.90
2018-08-25T07:34:57.507Z,28.00
2018-08-25T07:37:39.094Z,28.10
2018-08-25T07:40:19.730Z,28.10
2018-08-25T07:43:01.262Z,27.90
2018-08-25T07:45:42.007Z,27.80
2018-08-25T07:48:22.631Z,27.70
2018-08-25T07:51:04.071Z,27.60
2018-08-25T07:53:45.532Z,27.30
2018-08-25T07:56:26.140Z,27.10
2018-08-25T07:59:06.842Z,26.90
2018-08-25T08:01:47.390Z,26.90
2018-08-25T08:04:28.921Z,27.00
2018-08-25T08:07:10.517Z,27.10
2018-08-25T08:09:52.130Z,27.30
2018-08-25T08:12:33.689Z,27.40
2018-08-25T08:15:14.377Z,27.60
2018-08-25T08:17:54.955Z,27.90
2018-08-25T08:20:35.454Z,28.40
2018-08-25T08:23:16.169Z,28.80
2018-08-25T08:25:56.842Z,29.10
2018-08-25T08:28:37.379Z,29.60
2018-08-25T08:31:18.325Z,29.90
2018-08-25T08:33:59.689Z,30.10
2018-08-25T08:36:40.285Z,30.30
2018-08-25T08:39:20.836Z,30.60
2018-08-25T08:42:02.070Z,30.80
2018-08-25T08:44:42.962Z,30.90
2018-08-25T08:47:24.429Z,30.90
2018-08-25T08:50:05.203Z,30.90
2018-08-25T08:52:46.510Z,30.80
2018-08-25T08:55:27.612Z,30.50
2018-08-25T08:58:08.857Z,30.20
2018-08-25T09:00:50.405Z,30.00
2018-08-25T09:03:31.991Z,30.00
2018-08-25T09:06:12.513Z,29.90
2018-08-25T09:08:53.199Z,29.80
2018-08-25T09:11:34.042Z,29.80
2018-08-25T09:14:15.358Z,29.70
2018-08-25T09:16:55.917Z,29.80
2018-08-25T09:19:36.576Z,30.00
2018-08-25T09:22:17.972Z,30.10
2018-08-25T09:24:58.862Z,30.30
2018-08-25T09:27:39.399Z,30.10
2018-08-25T09:30:20.079Z,29.90
2018-08-25T09:33:00.749Z,29.70
2018-08-25T09:35:41.272Z,29.80
2018-08-25T09:38:21.859Z,30.00
2018-08-25T09:41:03.294Z,30.20
2018-08-25T09:43:43.972Z,30.30
2018-08-25T09:46:24.599Z,30.30
2018-08-25T09:49:05.217Z,30.30
2018-08-25T09:51:45.851Z,30.50
2018-08-25T09:54:26.538Z,30.70
2018-08-25T09:57:08.062Z,30.60
2018-08-25T09:59:49.679Z,30.10
2018-08-25T10:02:31.071Z,29.70
2018-08-25T10:05:11.761Z,29.60
2018-08-25T10:07:52.414Z,29.40
2018-08-25T10:10:32.942Z,29.30
2018-08-25T10:13:14.483Z,29.20
2018-08-25T10:15:55.760Z,29.00
2018-08-25T10:18:36.409Z,28.90
2018-08-25T10:21:17.847Z,28.90
2018-08-25T10:23:58.348Z,29.10
2018-08-25T10:26:39.180Z,29.20
2018-08-25T10:29:21.194Z,29.10
2018-08-25T10:32:02.339Z,29.20
2018-08-25T10:34:43.944Z,29.30
2018-08-25T10:37:25.401Z,29.40
2018-08-25T10:40:06.822Z,29.60
2018-08-25T10:42:48.377Z,29.70
2018-08-25T10:45:29.974Z,29.80
2018-08-25T10:48:11.597Z,29.90
2018-08-25T10:50:52.142Z,30.20
2018-08-25T10:53:33.637Z,30.40
2018-08-25T10:56:14.460Z,30.50
2018-08-25T10:58:55.177Z,30.60
2018-08-25T11:01:35.733Z,30.60
2018-08-25T11:04:16.369Z,30.60
2018-08-25T11:06:58.145Z,30.60
2018-08-25T11:09:39.462Z,30.60
2018-08-25T11:12:21.121Z,30.60
2018-08-25T11:15:02.581Z,30.50
2018-08-25T11:17:44.125Z,30.60
2018-08-25T11:20:25.596Z,30.50
2018-08-25T11:23:06.953Z,30.60
2018-08-25T11:25:47.605Z,30.50
2018-08-25T11:28:29.009Z,30.50
2018-08-25T11:31:09.661Z,30.30
2018-08-25T11:33:50.961Z,30.40
2018-08-25T11:36:31.891Z,30.30
2018-08-25T11:39:12.810Z,30.20
2018-08-25T11:41:54.029Z,30.20
2018-08-25T11:44:35.374Z,30.00
2018-08-25T11:47:17.626Z,30.00
2018-08-25T11:49:58.651Z,30.10
2018-08-25T11:52:39.181Z,30.20
2018-08-25T11:55:19.869Z,30.30
2018-08-25T11:58:00.433Z,30.40
2018-08-25T12:00:41.235Z,30.30
2018-08-25T12:03:22.660Z,30.30
2018-08-25T12:06:03.201Z,30.20
2018-08-25T12:08:45.296Z,30.10
2018-08-25T12:11:26.041Z,30.00
2018-08-25T12:14:06.587Z,30.10
2018-08-25T12:16:47.226Z,30.00
2018-08-25T12:19:28.050Z,29.90
2018-08-25T12:22:09.582Z,29.70
2018-08-25T12:24:51.039Z,29.50
2018-08-25T12:27:31.697Z,29.60
2018-08-25T12:30:12.206Z,29.60
2018-08-25T12:32:52.923Z,29.60
2018-08-25T12:35:33.602Z,29.70
2018-08-25T12:38:15.041Z,29.90
2018-08-25T12:40:55.841Z,29.90
2018-08-25T12:43:37.439Z,29.90
2018-08-25T12:46:17.920Z,29.80
2018-08-25T12:48:58.467Z,29.80
2018-08-25T12:51:39.412Z,29.70
2018-08-25T12:54:20.721Z,29.60
2018-08-25T12:57:01.373Z,29.60
2018-08-25T12:59:42.508Z,29.70
2018-08-25T13:02:23.680Z,29.80
2018-08-25T13:05:05.259Z,29.80
2018-08-25T13:07:46.847Z,29.70
2018-08-25T13:10:28.933Z,29.60
2018-08-25T13:13:09.981Z,29.50
2018-08-25T13:15:51.370Z,29.50
2018-08-25T13:18:31.982Z,29.50
2018-08-25T13:21:12.641Z,29.30
2018-08-25T13:23:54.197Z,29.00
2018-08-25T13:26:34.789Z,28.90
2018-08-25T13:29:16.369Z,28.80
2018-08-25T13:31:57.750Z,28.80
2018-08-25T13:34:38.314Z,28.80
2018-08-25T13:37:19.067Z,28.80
2018-08-25T13:39:59.596Z,29.00
2018-08-25T13:42:40.159Z,29.10
2018-08-25T13:45:20.798Z,29.30
2018-08-25T13:48:01.334Z,29.40
2018-08-25T13:50:42.914Z,29.60
2018-08-25T13:53:24.386Z,29.80
2018-08-25T13:56:05.842Z,29.70
2018-08-25T13:58:46.453Z,29.70
2018-08-25T14:01:27.145Z,29.70
2018-08-25T14:04:08.634Z,29.70
2018-08-25T14:06:50.221Z,29.60
2018-08-25T14:09:31.606Z,29.60
2018-08-25T14:12:12.705Z,29.50
2018-08-25T14:14:53.759Z,29.50
2018-08-25T14:17:35.235Z,29.40
2018-08-25T14:20:15.725Z,29.30
2018-08-25T14:22:56.916Z,29.20
2018-08-25T14:25:37.737Z,29.00
2018-08-25T14:28:18.378Z,28.90
2018-08-25T14:30:58.890Z,28.80
2018-08-25T14:33:39.369Z,28.60
2018-08-25T14:36:20.152Z,28.50
2018-08-25T14:39:01.447Z,28.20
2018-08-25T14:41:42.913Z,27.90
2018-08-25T14:44:23.398Z,27.80
2018-08-25T14:47:04.071Z,27.80
2018-08-25T14:49:45.588Z,27.60
2018-08-25T14:52:27.422Z,27.40
2018-08-25T14:55:08.432Z,27.30
2018-08-25T14:57:48.959Z,27.00
2018-08-25T15:00:29.585Z,26.80
2018-08-25T15:03:10.488Z,26.60
2018-08-25T15:05:52.010Z,26.40
2018-08-25T15:08:33.435Z,26.30
2018-08-25T15:11:14.879Z,26.20
2018-08-25T15:13:56.277Z,26.10
2018-08-25T15:16:36.878Z,26.00
2018-08-25T15:19:17.527Z,26.10
2018-08-25T15:21:58.524Z,26.10
2018-08-25T15:24:40.048Z,26.00
2018-08-25T15:27:20.596Z,26.00
2018-08-25T15:30:01.314Z,26.00
2018-08-25T15:32:42.788Z,25.90
2018-08-25T15:35:23.429Z,26.00
2018-08-25T15:38:04.090Z,25.90
2018-08-25T15:40:44.845Z,25.90
2018-08-25T15:43:26.254Z,25.80
2018-08-25T15:46:06.854Z,25.70
2018-08-25T15:48:47.562Z,25.70
2018-08-25T15:51:29.021Z,25.60
2018-08-25T15:54:10.922Z,25.70
2018-08-25T15:56:52.230Z,25.80
2018-08-25T15:59:32.936Z,25.70
2018-08-25T16:02:14.720Z,25.70
2018-08-25T16:04:56.917Z,25.70
2018-08-25T16:07:38.009Z,25.70
2018-08-25T16:10:19.213Z,25.60
2018-08-25T16:13:00.611Z,25.60
2018-08-25T16:15:41.768Z,25.60
2018-08-25T16:18:22.924Z,25.60
2018-08-25T16:21:03.646Z,25.60
2018-08-25T16:23:44.162Z,25.60
2018-08-25T16:26:24.783Z,25.60
2018-08-25T16:29:06.293Z,25.70
2018-08-25T16:31:46.858Z,25.70
2018-08-25T16:34:28.305Z,25.70
2018-08-25T16:37:08.991Z,25.70
2018-08-25T16:39:50.358Z,25.60
2018-08-25T16:42:31.293Z,25.50
2018-08-25T16:45:12.737Z,25.50
2018-08-25T16:47:54.225Z,25.40
2018-08-25T16:50:34.859Z,25.40
2018-08-25T16:53:16.410Z,25.30
2018-08-25T16:55:58.068Z,25.10
2018-08-25T16:58:39.266Z,25.00
2018-08-25T17:01:20.824Z,25.00
2018-08-25T17:04:02.352Z,25.00
2018-08-25T17:06:42.954Z,25.00
2018-08-25T17:09:23.664Z,25.00
2018-08-25T17:12:04.913Z,25.10
2018-08-25T17:14:45.824Z,25.10
2018-08-25T17:17:26.449Z,25.20
2018-08-25T17:20:06.966Z,25.10
2018-08-25T17:22:47.534Z,25.10
2018-08-25T17:25:28.237Z,25.00
2018-08-25T17:28:09.716Z,25.00
2018-08-25T17:30:50.443Z,24.90
2018-08-25T17:33:31.141Z,24.90
2018-08-25T17:36:11.748Z,25.00
2018-08-25T17:38:52.374Z,25.00
2018-08-25T17:41:33.189Z,25.20
2018-08-25T17:44:14.523Z,25.20
2018-08-25T17:46:55.234Z,25.20
2018-08-25T17:49:35.800Z,25.20
2018-08-25T17:52:16.444Z,25.20
2018-08-25T17:54:57.103Z,25.20
2018-08-25T17:57:38.799Z,25.10
2018-08-25T18:00:20.094Z,25.00
2018-08-25T18:03:00.670Z,24.90
2018-08-25T18:05:41.222Z,24.80
2018-08-25T18:08:21.758Z,24.70
2018-08-25T18:11:02.460Z,24.70
2018-08-25T18:13:42.974Z,24.60
2018-08-25T18:16:23.773Z,24.60
2018-08-25T18:19:04.341Z,24.60
2018-08-25T18:21:44.959Z,24.50
2018-08-25T18:24:25.670Z,24.50
2018-08-25T18:27:06.258Z,24.40
2018-08-25T18:29:47.695Z,24.40
2018-08-25T18:32:28.385Z,24.30
2018-08-25T18:35:09.893Z,24.30
2018-08-25T18:37:51.257Z,24.30
2018-08-25T18:40:31.890Z,24.20
2018-08-25T18:43:12.665Z,24.20
2018-08-25T18:45:54.514Z,24.30
2018-08-25T18:48:35.677Z,24.30
2018-08-25T18:51:16.310Z,24.30
2018-08-25T18:53:57.806Z,24.30
2018-08-25T18:56:39.317Z,24.30
2018-08-25T18:59:20.934Z,24.40
2018-08-25T19:02:02.067Z,24.40
2018-08-25T19:04:43.172Z,24.50
2018-08-25T19:07:24.718Z,24.50
2018-08-25T19:10:05.329Z,24.60
2018-08-25T19:12:46.026Z,24.60
2018-08-25T19:15:27.601Z,24.50
2018-08-25T19:18:08.167Z,24.60
2018-08-25T19:20:48.860Z,24.50
2018-08-25T19:23:29.468Z,24.60
2018-08-25T19:26:10.205Z,24.50
2018-08-25T19:28:51.659Z,24.40
2018-08-25T19:31:32.330Z,24.30
2018-08-25T19:34:12.922Z,24.30
2018-08-25T19:36:53.953Z,24.20
2018-08-25T19:39:35.234Z,24.20
2018-08-25T19:42:15.856Z,24.10
2018-08-25T19:44:56.444Z,24.00
2018-08-25T19:47:37.039Z,24.00
2018-08-25T19:50:17.665Z,24.00
2018-08-25T19:52:58.201Z,23.90
2018-08-25T19:55:39.709Z,23.90
2018-08-25T19:58:20.335Z,23.90
2018-08-25T20:01:01.033Z,23.80
2018-08-25T20:03:43.084Z,23.80
2018-08-25T20:06:24.020Z,23.80
2018-08-25T20:09:05.196Z,23.80
2018-08-25T20:11:46.300Z,23.80
2018-08-25T20:14:27.754Z,23.80
2018-08-25T20:17:09.250Z,23.80
2018-08-25T20:19:50.480Z,23.80
2018-08-25T20:22:31.366Z,23.80
2018-08-25T20:25:11.974Z,23.80
2018-08-25T20:27:52.577Z,23.80
2018-08-25T20:30:33.199Z,23.80
2018-08-25T20:33:14.666Z,23.80
2018-08-25T20:35:56.265Z,23.80
2018-08-25T20:38:37.749Z,23.80
2018-08-25T20:41:18.326Z,23.80
2018-08-25T20:43:59.794Z,23.80
2018-08-25T20:46:40.453Z,23.80
2018-08-25T20:49:20.931Z,23.70
2018-08-25T20:52:01.555Z,23.70
2018-08-25T20:54:42.161Z,23.70
2018-08-25T20:57:23.720Z,23.80
2018-08-25T21:00:05.134Z,23.70
2018-08-25T21:02:45.998Z,23.80
2018-08-25T21:05:27.254Z,23.80
2018-08-25T21:08:08.415Z,23.80
2018-08-25T21:10:49.410Z,23.80
2018-08-25T21:13:30.854Z,23.80
2018-08-25T21:16:12.223Z,23.70
2018-08-25T21:18:52.847Z,23.70
2018-08-25T21:21:34.318Z,23.60
2018-08-25T21:24:15.969Z,23.70
2018-08-25T21:26:58.145Z,23.70
2018-08-25T21:29:38.928Z,23.70
2018-08-25T21:32:19.645Z,23.70
2018-08-25T21:35:01.186Z,23.70
2018-08-25T21:37:42.693Z,23.80
2018-08-25T21:40:24.209Z,23.90
2018-08-25T21:43:05.725Z,23.90
2018-08-25T21:45:46.496Z,24.00
2018-08-25T21:48:28.008Z,24.00
2018-08-25T21:51:09.989Z,24.00
2018-08-25T21:53:51.097Z,24.00
2018-08-25T21:56:32.629Z,24.10
2018-08-25T21:59:14.127Z,24.00
2018-08-25T22:01:57.585Z,24.00
2018-08-25T22:04:38.474Z,24.00
2018-08-25T22:07:19.341Z,24.00
2018-08-25T22:10:01.425Z,24.00
2018-08-25T22:12:42.342Z,24.00
2018-08-25T22:15:23.113Z,24.10
2018-08-25T22:18:04.538Z,24.20
2018-08-25T22:20:45.222Z,24.20
2018-08-25T22:23:25.967Z,24.20
2018-08-25T22:26:06.620Z,24.20
2018-08-25T22:28:47.261Z,24.20
2018-08-25T22:31:27.831Z,24.20
2018-08-25T22:34:08.381Z,24.20
2018-08-25T22:36:49.150Z,24.20
2018-08-25T22:39:29.846Z,24.20
2018-08-25T22:42:11.355Z,24.20
2018-08-25T22:44:51.960Z,24.30
2018-08-25T22:47:32.577Z,24.30
2018-08-25T22:50:13.249Z,24.30
2018-08-25T22:52:54.661Z,24.30
2018-08-25T22:55:35.409Z,24.30
2018-08-25T22:58:16.917Z,24.30
2018-08-25T23:00:58.558Z,24.40
2018-08-25T23:03:39.936Z,24.40
2018-08-25T23:06:20.654Z,24.40
2018-08-25T23:09:01.329Z,24.40
2018-08-25T23:11:41.909Z,24.30
2018-08-25T23:14:22.534Z,24.30
2018-08-25T23:17:03.296Z,24.40
2018-08-25T23:19:43.855Z,24.40
2018-08-25T23:22:25.907Z,24.40
2018-08-25T23:25:06.814Z,24.40
2018-08-25T23:27:47.383Z,24.50
2018-08-25T23:30:28.159Z,24.50
2018-08-25T23:33:08.883Z,24.50
2018-08-25T23:35:49.415Z,24.50
2018-08-25T23:38:30.881Z,24.40
2018-08-25T23:41:11.829Z,24.40
2018-08-25T23:43:52.397Z,24.40
2018-08-25T23:46:33.090Z,24.40
2018-08-25T23:49:14.578Z,24.40
2018-08-25T23:51:55.478Z,24.40
2018-08-25T23:54:37.533Z,24.30
2018-08-25T23:57:18.605Z,24.30
2018-08-25T23:59:59.202Z,24.30
